createdAt,value
2023-10-10T00:01:19.850Z,11.7
2023-10-10T00:09:45.865Z,11.4
2023-10-10T00:11:51.578Z,12.4
2023-10-10T00:15:01.710Z,12
2023-10-10T00:17:07.485Z,11.7
2023-10-10T00:19:13.447Z,12.1
2023-10-10T00:21:18.974Z,11.6
2023-10-10T00:31:50.764Z,10.9
2023-10-10T00:33:56.536Z,10.7
2023-10-10T00:36:02.269Z,10.3
2023-10-10T00:38:11.069Z,12.9
2023-10-10T00:40:18.656Z,12.2
2023-10-10T00:42:24.139Z,14.2
2023-10-10T00:48:41.465Z,14.8
2023-10-10T00:50:47.173Z,11.8
2023-10-10T00:57:07.425Z,12.4
2023-10-10T00:59:13.299Z,13.3
2023-10-10T01:05:30.489Z,14
2023-10-10T01:14:22.020Z,13.1
2023-10-10T01:16:27.746Z,13.1
2023-10-10T01:18:33.502Z,12.4
2023-10-10T01:24:53.740Z,11.3
2023-10-10T01:31:11.043Z,12.6
2023-10-10T01:35:25.612Z,13.4
2023-10-10T01:37:31.264Z,10.7
2023-10-10T01:50:08.854Z,13.4
2023-10-10T01:52:14.601Z,12.8
2023-10-10T01:54:20.357Z,12.5
2023-10-10T01:58:31.927Z,12.8
2023-10-10T02:04:52.181Z,13.4
2023-10-10T02:10:08.081Z,13.4
2023-10-10T02:16:25.388Z,12.5
2023-10-10T02:18:34.089Z,16.8
2023-10-10T02:22:45.638Z,11.6
2023-10-10T02:24:51.409Z,13.6
2023-10-10T02:26:57.157Z,12.3
2023-10-10T02:31:08.696Z,10.3
2023-10-10T02:33:17.493Z,13.9
2023-10-10T02:35:23.297Z,11.6
2023-10-10T02:37:28.929Z,12
2023-10-10T02:39:34.708Z,12.6
2023-10-10T02:43:46.228Z,12
2023-10-10T02:45:51.975Z,13.5
2023-10-10T02:54:18.011Z,13.4
2023-10-10T02:56:23.817Z,13.3
2023-10-10T02:58:29.554Z,16.4
2023-10-10T03:00:35.269Z,14.6
2023-10-10T03:02:44.103Z,15.9
2023-10-10T03:04:49.790Z,17.3
2023-10-10T03:06:55.556Z,16.5
2023-10-10T03:07:59.914Z,16.9
2023-10-10T03:14:17.186Z,19.3
2023-10-10T03:16:25.932Z,18.1
2023-10-10T03:31:09.169Z,17.9
2023-10-10T03:33:14.979Z,17.4
2023-10-10T03:35:20.726Z,17.8
2023-10-10T03:37:26.463Z,18.2
2023-10-10T03:39:32.210Z,18
2023-10-10T03:41:38.007Z,18.6
2023-10-10T03:43:43.723Z,16.6
2023-10-10T03:47:58.208Z,20.8
2023-10-10T03:50:03.993Z,17.4
2023-10-10T03:52:09.740Z,17.2
2023-10-10T03:58:27.010Z,19.2
2023-10-10T04:00:35.736Z,20.8
2023-10-10T04:04:47.247Z,18.9
2023-10-10T04:05:51.677Z,18.3
2023-10-10T04:07:57.387Z,20.7
2023-10-10T04:10:03.130Z,20
2023-10-10T04:12:08.896Z,18.5
2023-10-10T04:16:23.405Z,17.9
2023-10-10T04:22:40.637Z,22
2023-10-10T04:26:52.146Z,20.7
2023-10-10T04:29:00.949Z,22.4
2023-10-10T04:31:06.647Z,22.6
2023-10-10T04:33:12.504Z,21.2
2023-10-10T04:37:23.954Z,19.8
2023-10-10T04:39:29.679Z,22.3
2023-10-10T04:41:35.497Z,26.2
2023-10-10T04:43:44.166Z,22.7
2023-10-10T04:45:50.052Z,22.2
2023-10-10T04:47:55.771Z,20.7
2023-10-10T04:56:18.754Z,22.8
2023-10-10T04:58:27.434Z,26.8
2023-10-10T05:02:39.059Z,24.9
2023-10-10T05:05:10.251Z,26.3
2023-10-10T05:07:15.976Z,27
2023-10-10T05:15:41.935Z,24.9
2023-10-10T05:17:47.874Z,23.5
2023-10-10T05:19:53.450Z,26.7
2023-10-10T05:21:59.224Z,27.1
2023-10-10T05:24:05.015Z,24.3
2023-10-10T05:26:13.709Z,26.9
2023-10-10T05:28:19.483Z,28.4
2023-10-10T05:32:31.053Z,28.7
2023-10-10T05:34:36.702Z,30
2023-10-10T05:38:48.255Z,30.6
2023-10-10T05:40:58.315Z,34.6
2023-10-10T05:43:02.707Z,32.6
2023-10-10T05:45:08.473Z,35.6
2023-10-10T05:47:14.269Z,33.8
2023-10-10T05:49:19.979Z,34.6
2023-10-10T05:51:25.728Z,35.8
2023-10-10T05:53:31.507Z,36.1
2023-10-10T05:55:37.982Z,34.9
2023-10-10T06:00:53.865Z,36
2023-10-10T06:02:59.663Z,33.4
2023-10-10T06:05:05.396Z,32.1
2023-10-10T06:07:11.079Z,31.9
2023-10-10T06:11:25.613Z,33.5
2023-10-10T06:13:31.298Z,35.8
2023-10-10T06:15:37.268Z,32.4
2023-10-10T06:19:48.563Z,33.1
2023-10-10T06:21:54.311Z,31.6
2023-10-10T06:24:03.073Z,31.6
2023-10-10T06:26:08.871Z,32.9
2023-10-10T06:28:14.563Z,33.6
2023-10-10T06:32:26.108Z,31.9
2023-10-10T06:34:31.804Z,27.2
2023-10-10T06:36:37.577Z,35.3
2023-10-10T06:38:46.325Z,38.3
2023-10-10T06:40:52.048Z,34.8
2023-10-10T06:43:02.618Z,34
2023-10-10T06:45:05.117Z,37.7
2023-10-10T06:49:16.669Z,35.4
2023-10-10T06:51:22.392Z,36.3
2023-10-10T06:53:31.130Z,36
2023-10-10T06:55:36.872Z,36.4
2023-10-10T06:58:46.986Z,35.3
2023-10-10T07:00:52.806Z,33.5
2023-10-10T07:07:12.945Z,31.8
2023-10-10T07:11:24.519Z,33.5
2023-10-10T07:15:36.438Z,33.1
2023-10-10T07:17:41.812Z,35.4
2023-10-10T07:19:47.513Z,32.9
2023-10-10T07:21:56.233Z,34.5
2023-10-10T07:24:01.991Z,33.8
2023-10-10T07:34:30.791Z,30.4
2023-10-10T07:38:45.361Z,29.1
2023-10-10T07:42:56.792Z,31.8
2023-10-10T07:45:02.549Z,30.2
2023-10-10T07:49:14.068Z,28
2023-10-10T07:51:22.793Z,29.9
2023-10-10T07:53:28.584Z,26.4
2023-10-10T07:56:38.743Z,28.7
2023-10-10T07:58:52.531Z,26.3
2023-10-10T08:00:50.236Z,29.1
2023-10-10T08:05:04.712Z,28.7
2023-10-10T08:11:21.996Z,25.2
2023-10-10T08:13:27.720Z,25.5
2023-10-10T08:15:33.491Z,23.5
2023-10-10T08:17:39.310Z,23.7
2023-10-10T08:19:47.976Z,26.7
2023-10-10T08:21:53.747Z,23
2023-10-10T08:23:59.488Z,22.8
2023-10-10T08:26:05.255Z,23.3
2023-10-10T08:28:11.000Z,20.1
2023-10-10T08:32:22.585Z,19.8
2023-10-10T08:38:42.712Z,20.6
2023-10-10T08:49:14.416Z,17.5
2023-10-10T08:53:25.998Z,14.9
2023-10-10T08:55:57.069Z,18.1
2023-10-10T09:02:17.503Z,14.6
2023-10-10T09:04:23.093Z,14.5
2023-10-10T09:06:28.767Z,14.6
2023-10-10T09:14:52.059Z,11.1
2023-10-10T09:17:00.606Z,11.2
2023-10-10T09:19:06.223Z,11.5
2023-10-10T09:21:11.995Z,13.9
2023-10-10T09:23:17.713Z,9.9
2023-10-10T09:25:23.467Z,12.9
2023-10-10T09:27:29.184Z,11.6
2023-10-10T09:29:34.965Z,10.3
2023-10-10T09:33:49.399Z,12.6
2023-10-10T09:40:06.640Z,8.4
2023-10-10T09:42:12.365Z,10.5
2023-10-10T09:44:18.392Z,10.3
2023-10-10T09:46:26.882Z,10.1
2023-10-10T09:48:32.636Z,12.7
2023-10-10T09:50:38.359Z,9.8
2023-10-10T09:51:42.690Z,10.1
2023-10-10T09:53:48.558Z,12.4
2023-10-10T09:55:54.164Z,9.7
2023-10-10T10:00:23.912Z,9.4
2023-10-10T10:16:57.547Z,9.1
2023-10-10T10:19:03.293Z,8.1
2023-10-10T10:21:09.018Z,7.6
2023-10-10T10:23:14.791Z,9.9
2023-10-10T10:27:26.267Z,9.1
2023-10-10T10:29:34.978Z,9.3
2023-10-10T10:31:41.429Z,8.7
2023-10-10T10:33:46.405Z,7.2
2023-10-10T10:35:52.118Z,7.2
2023-10-10T10:40:03.568Z,6.6
2023-10-10T10:42:09.300Z,6.4
2023-10-10T10:44:18.210Z,7.4
2023-10-10T10:46:23.805Z,7.4
2023-10-10T10:48:29.645Z,8.3
2023-10-10T10:49:33.826Z,6.7
2023-10-10T10:53:45.324Z,8.2
2023-10-10T10:55:50.997Z,7.4
2023-10-10T10:57:59.707Z,6.9
2023-10-10T11:00:05.521Z,6.3
2023-10-10T11:02:11.187Z,6.8
2023-10-10T11:04:17.139Z,8.2
2023-10-10T11:06:22.639Z,8.1
2023-10-10T11:08:28.702Z,6.8
2023-10-10T11:12:42.788Z,7.7
2023-10-10T11:14:48.611Z,5.5
2023-10-10T11:18:59.964Z,6.1
2023-10-10T11:21:05.704Z,5.6
2023-10-10T11:25:17.128Z,5.9
2023-10-10T11:33:43.067Z,5.4
2023-10-10T11:35:48.818Z,5.9
2023-10-10T11:40:00.249Z,5.5
2023-10-10T11:46:20.450Z,6.3
2023-10-10T11:47:24.860Z,6.2
2023-10-10T11:51:36.244Z,6.6
2023-10-10T11:53:42.003Z,4.8
2023-10-10T11:55:50.672Z,7.1
2023-10-10T11:57:56.405Z,7.4
2023-10-10T12:00:16.227Z,6.4
2023-10-10T12:02:07.862Z,5.5
2023-10-10T12:04:13.870Z,6.3
2023-10-10T12:06:19.356Z,6.2
2023-10-10T12:12:39.500Z,5.6
2023-10-10T12:16:50.982Z,6.8
2023-10-10T12:18:56.770Z,7.2
2023-10-10T12:21:02.451Z,6.4
2023-10-10T12:23:08.189Z,6.5
2023-10-10T12:25:16.900Z,7.6
2023-10-10T12:27:22.629Z,6.8
2023-10-10T12:29:28.364Z,5.3
2023-10-10T12:33:39.829Z,6.2
2023-10-10T12:39:59.963Z,6.8
2023-10-10T12:42:05.838Z,5.9
2023-10-10T12:44:11.429Z,6
2023-10-10T12:48:49.894Z,5.7
2023-10-10T12:57:15.787Z,6.5
2023-10-10T12:59:26.430Z,5.6
2023-10-10T13:01:27.192Z,5.9
2023-10-10T13:03:33.147Z,5.7
2023-10-10T13:05:38.667Z,5.3
2023-10-10T13:07:47.352Z,5.8
2023-10-10T13:09:53.064Z,4.9
2023-10-10T13:16:10.313Z,6.6
2023-10-10T13:18:16.055Z,6.2
2023-10-10T13:20:22.116Z,6.8
2023-10-10T13:22:30.789Z,5.4
2023-10-10T13:24:36.076Z,6.3
2023-10-10T13:28:47.546Z,8
2023-10-10T13:30:53.233Z,6.9
2023-10-10T13:32:59.062Z,6.6
2023-10-10T13:35:04.682Z,6.4
2023-10-10T13:37:13.410Z,8.1
2023-10-10T13:42:29.204Z,6
2023-10-10T13:44:34.999Z,6.2
2023-10-10T13:46:41.292Z,6.3
2023-10-10T13:48:46.987Z,6
2023-10-10T13:50:55.736Z,6.2
2023-10-10T13:55:07.099Z,5.9
2023-10-10T13:57:12.822Z,7.2
2023-10-10T13:59:18.622Z,6
2023-10-10T14:01:24.365Z,8.1
2023-10-10T14:03:30.296Z,6.3
2023-10-10T14:05:38.721Z,6
2023-10-10T14:07:44.441Z,6.2
2023-10-10T14:10:01.743Z,6.2
2023-10-10T14:11:57.932Z,6
2023-10-10T14:14:01.610Z,7.4
2023-10-10T14:18:13.233Z,7.5
2023-10-10T14:20:21.842Z,5.9
2023-10-10T14:22:32.318Z,7.1
2023-10-10T14:24:33.352Z,6.8
2023-10-10T14:26:38.962Z,6
2023-10-10T14:28:44.674Z,7.1
2023-10-10T14:30:50.522Z,6.1
2023-10-10T14:32:56.483Z,6.4
2023-10-10T14:35:04.858Z,7.1
2023-10-10T14:39:16.436Z,6.2
2023-10-10T14:44:33.325Z,6.3
2023-10-10T14:46:37.961Z,6.3
2023-10-10T14:48:46.653Z,7.4
2023-10-10T14:50:53.379Z,6.4
2023-10-10T14:55:03.800Z,6
2023-10-10T15:01:20.990Z,4.4
2023-10-10T15:07:41.199Z,6.4
2023-10-10T15:11:52.750Z,5.8
2023-10-10T15:13:58.428Z,7
2023-10-10T15:16:04.239Z,5.3
2023-10-10T15:20:18.646Z,7.4
2023-10-10T15:22:24.368Z,5.8
2023-10-10T15:24:30.085Z,6.7
2023-10-10T15:26:35.960Z,5.6
2023-10-10T15:28:41.563Z,5.6
2023-10-10T15:32:56.107Z,5.7
2023-10-10T15:37:07.496Z,6.7
2023-10-10T15:38:11.868Z,7.2
2023-10-10T15:40:17.594Z,5.5
2023-10-10T15:42:23.374Z,5.1
2023-10-10T15:44:29.131Z,6.5
2023-10-10T15:46:39.342Z,6.5
2023-10-10T15:48:43.734Z,7
2023-10-10T15:50:49.318Z,6.2
2023-10-10T15:52:55.035Z,7
2023-10-10T15:55:00.779Z,7.1
2023-10-10T15:57:06.511Z,7.2
2023-10-10T15:59:12.286Z,5.7
2023-10-10T16:01:21.006Z,7.2
2023-10-10T16:03:26.826Z,5.6
2023-10-10T16:16:04.252Z,6.2
2023-10-10T16:18:10.049Z,4.7
2023-10-10T16:20:15.730Z,4.7
2023-10-10T16:22:21.491Z,5.5
2023-10-10T16:26:33.031Z,5
2023-10-10T16:28:38.748Z,7.6
2023-10-10T16:30:47.480Z,6.4
2023-10-10T16:32:53.298Z,6
2023-10-10T16:34:58.987Z,5.3
2023-10-10T16:37:30.191Z,9.2
2023-10-10T16:39:35.921Z,5.1
2023-10-10T16:41:41.771Z,5.3
2023-10-10T16:44:00.985Z,4.8
2023-10-10T16:45:56.211Z,5.5
2023-10-10T16:48:02.103Z,5.1
2023-10-10T16:50:07.717Z,5.9
2023-10-10T16:52:13.472Z,4.3
2023-10-10T16:56:25.018Z,4.7
2023-10-10T17:06:56.788Z,5.6
2023-10-10T17:09:02.600Z,6.9
2023-10-10T17:11:08.334Z,5.8
2023-10-10T17:13:17.110Z,5.9
2023-10-10T17:15:22.838Z,5.8
2023-10-10T17:17:28.635Z,6.8
2023-10-10T17:21:41.533Z,5.1
2023-10-10T17:23:45.952Z,5.2
2023-10-10T17:25:51.650Z,11.8
2023-10-10T17:30:06.239Z,5.6
2023-10-10T17:32:11.931Z,6.3
2023-10-10T17:33:16.361Z,5
2023-10-10T17:35:22.096Z,5.9
2023-10-10T17:37:27.838Z,4.4
2023-10-10T17:39:33.612Z,4.7
2023-10-10T17:41:42.404Z,5.9
2023-10-10T17:43:48.114Z,4.2
2023-10-10T17:45:53.909Z,5.2
2023-10-10T17:47:59.804Z,5.5
2023-10-10T17:50:05.415Z,4.4
2023-10-10T17:52:11.188Z,4.6
2023-10-10T17:54:17.553Z,4.3
2023-10-10T17:56:25.890Z,6.7
2023-10-10T17:58:31.482Z,3.6
2023-10-10T18:02:43.092Z,3.5
2023-10-10T18:04:48.831Z,4.2
2023-10-10T18:06:54.584Z,5.5
2023-10-10T18:09:00.352Z,5.4
2023-10-10T18:17:26.404Z,5.8
2023-10-10T18:19:32.246Z,4.8
2023-10-10T18:21:37.920Z,4.5
2023-10-10T18:23:43.728Z,4.3
2023-10-10T18:27:58.204Z,4.5
2023-10-10T18:31:08.375Z,7.8
2023-10-10T18:33:14.242Z,3.6
2023-10-10T18:35:19.871Z,3.9
2023-10-10T18:37:25.680Z,3.7
2023-10-10T18:45:51.701Z,3.7
2023-10-10T18:47:59.136Z,5
2023-10-10T18:50:04.835Z,3.9
2023-10-10T18:52:10.582Z,4.7
2023-10-10T18:54:19.358Z,4.9
2023-10-10T18:56:25.116Z,3.3
2023-10-10T18:58:30.978Z,3.7
2023-10-10T19:00:36.765Z,4
2023-10-10T19:02:42.443Z,4.4
2023-10-10T19:13:14.257Z,3.6
2023-10-10T19:15:20.008Z,4.2
2023-10-10T19:23:46.121Z,4.5
2023-10-10T19:25:51.833Z,2.5
2023-10-10T19:29:01.960Z,4
2023-10-10T19:31:07.797Z,4.2
2023-10-10T19:37:28.018Z,4.2
2023-10-10T19:39:33.810Z,4
2023-10-10T19:41:39.640Z,3.2
2023-10-10T19:43:45.333Z,3.1
2023-10-10T19:45:51.131Z,3.6
2023-10-10T19:50:02.659Z,3.4
2023-10-10T19:52:11.437Z,3.4
2023-10-10T19:54:17.513Z,3.3
2023-10-10T19:56:22.969Z,3.5
2023-10-10T20:09:00.656Z,5.6
2023-10-10T20:23:44.243Z,2.8
2023-10-10T20:28:20.970Z,4.5
2023-10-10T20:32:32.600Z,4.8
2023-10-10T20:34:41.271Z,4.3
2023-10-10T20:36:47.006Z,2.2
2023-10-10T20:38:52.790Z,4.1
2023-10-10T20:40:58.538Z,2.8
2023-10-10T20:43:04.308Z,4.5
2023-10-10T20:45:10.171Z,3.5
2023-10-10T20:47:15.841Z,2.9
2023-10-10T20:49:24.591Z,4
2023-10-10T20:51:30.313Z,3.8
2023-10-10T20:55:41.883Z,3.6
2023-10-10T20:57:47.629Z,3.6
2023-10-10T21:04:07.939Z,3.5
2023-10-10T21:12:30.981Z,4.3
2023-10-10T21:14:36.766Z,2.1
2023-10-10T21:16:42.561Z,3.6
2023-10-10T21:18:51.401Z,3.1
2023-10-10T21:21:03.244Z,3.2
2023-10-10T21:23:02.865Z,3.1
2023-10-10T21:24:07.231Z,3.6
2023-10-10T21:26:12.962Z,4.4
2023-10-10T21:28:18.737Z,4.1
2023-10-10T21:36:44.788Z,4.1
2023-10-10T21:38:50.582Z,4.1
2023-10-10T21:43:02.119Z,3.3
2023-10-10T21:45:07.967Z,4.4
2023-10-10T21:47:16.652Z,4.3
2023-10-10T21:49:22.421Z,3.1
2023-10-10T21:51:28.207Z,2.3
2023-10-10T21:53:33.986Z,3.6
2023-10-10T21:55:39.818Z,2.8
2023-10-10T21:57:45.484Z,3.3
2023-10-10T21:59:51.325Z,3.1
2023-10-10T22:02:00.088Z,3.1
2023-10-10T22:04:06.056Z,3.1
2023-10-10T22:06:11.632Z,4.8
2023-10-10T22:08:17.334Z,3.9
2023-10-10T22:10:23.125Z,3.1
2023-10-10T22:12:28.880Z,3.6
2023-10-10T22:14:34.687Z,3.8
2023-10-10T22:18:49.410Z,3.9
2023-10-10T22:20:54.982Z,3.3
2023-10-10T22:21:59.301Z,3.4
2023-10-10T22:24:05.105Z,3.5
2023-10-10T22:26:10.875Z,4.1
2023-10-10T22:28:16.644Z,4.3
2023-10-10T22:32:31.179Z,2.9
2023-10-10T22:34:36.911Z,4.1
2023-10-10T22:36:49.509Z,4
2023-10-10T22:38:48.526Z,4
2023-10-10T22:40:54.219Z,3.3
2023-10-10T22:45:08.771Z,3.4
2023-10-10T22:47:14.506Z,3.5
2023-10-10T22:53:31.846Z,3.2
2023-10-10T22:59:52.132Z,3.3
2023-10-10T23:04:04.143Z,4
2023-10-10T23:06:09.846Z,3.4
2023-10-10T23:12:27.127Z,2.5
2023-10-10T23:14:35.916Z,2.9
2023-10-10T23:16:41.678Z,2.8
2023-10-10T23:18:47.605Z,4.3
2023-10-10T23:19:51.775Z,3.3
2023-10-10T23:24:03.354Z,4.1
2023-10-10T23:26:09.083Z,3.8
2023-10-10T23:43:01.209Z,5.4
2023-10-10T23:45:07.109Z,4.1
2023-10-10T23:51:24.306Z,4.9
2023-10-10T23:53:30.059Z,5.4
2023-10-10T23:59:50.382Z,3.8
